createdAt,value
2023-02-06T00:02:13.293Z,46.10
2023-02-06T00:04:41.441Z,45.40
2023-02-06T00:07:08.543Z,44.60
2023-02-06T00:09:35.561Z,44.60
2023-02-06T00:12:02.737Z,44.70
2023-02-06T00:14:29.876Z,44.30
2023-02-06T00:16:56.904Z,44.40
2023-02-06T00:19:24.032Z,44.10
2023-02-06T00:21:51.356Z,44.30
2023-02-06T00:24:18.411Z,44.60
2023-02-06T00:26:45.811Z,44.60
2023-02-06T00:29:13.358Z,44.60
2023-02-06T00:31:40.711Z,44.90
2023-02-06T00:34:08.199Z,45.10
2023-02-06T00:36:35.512Z,45.00
2023-02-06T00:39:02.995Z,44.70
2023-02-06T00:41:30.066Z,44.60
2023-02-06T00:43:57.106Z,44.50
2023-02-06T00:46:24.209Z,45.00
2023-02-06T00:48:51.278Z,44.10
2023-02-06T00:51:18.322Z,44.10
2023-02-06T00:53:50.988Z,44.60
2023-02-06T00:56:18.407Z,45.00
2023-02-06T00:58:45.642Z,45.20
2023-02-06T01:01:13.183Z,45.60
2023-02-06T01:03:40.342Z,45.90
2023-02-06T01:06:08.256Z,46.00
2023-02-06T01:08:35.336Z,45.70
2023-02-06T01:11:02.500Z,45.40
2023-02-06T01:13:29.634Z,45.80
2023-02-06T01:15:56.894Z,46.00
2023-02-06T01:18:24.384Z,46.00
2023-02-06T01:20:51.569Z,46.50
2023-02-06T01:23:18.746Z,46.80
2023-02-06T01:25:54.704Z,46.90
2023-02-06T01:28:25.097Z,46.90
2023-02-06T01:30:52.205Z,46.70
2023-02-06T01:33:19.535Z,46.60
2023-02-06T01:35:46.628Z,47.10
2023-02-06T01:38:13.717Z,47.00
2023-02-06T01:40:41.011Z,46.70
2023-02-06T01:43:15.400Z,46.80
2023-02-06T01:45:45.743Z,46.60
2023-02-06T01:48:19.146Z,46.70
2023-02-06T01:50:48.440Z,46.70
2023-02-06T01:53:15.560Z,46.50
2023-02-06T01:55:42.562Z,46.40
2023-02-06T01:58:10.033Z,46.70
2023-02-06T02:00:37.139Z,46.80
2023-02-06T02:03:04.215Z,47.40
2023-02-06T02:05:33.498Z,47.60
2023-02-06T02:08:09.607Z,47.40
2023-02-06T02:10:36.720Z,47.60
2023-02-06T02:13:03.884Z,47.70
2023-02-06T02:15:46.994Z,47.80
2023-02-06T02:18:29.203Z,47.90
2023-02-06T02:21:15.414Z,48.20
2023-02-06T02:23:42.415Z,48.20
2023-02-06T02:26:31.086Z,48.20
2023-02-06T02:29:04.078Z,48.40
2023-02-06T02:31:46.500Z,48.70
2023-02-06T02:34:35.284Z,49.20
2023-02-06T02:37:18.065Z,49.70
2023-02-06T02:40:09.567Z,49.10
2023-02-06T02:43:04.626Z,49.40
2023-02-06T02:45:45.202Z,49.00
2023-02-06T02:48:26.929Z,48.50
2023-02-06T02:50:54.533Z,48.40
2023-02-06T02:53:22.059Z,48.80
2023-02-06T02:55:49.365Z,49.20
2023-02-06T02:58:18.735Z,48.80
2023-02-06T03:00:49.515Z,49.50
2023-02-06T03:03:17.526Z,48.80
2023-02-06T03:06:13.533Z,48.50
2023-02-06T03:08:52.400Z,49.00
2023-02-06T03:11:19.710Z,48.80
2023-02-06T03:14:10.500Z,48.70
2023-02-06T03:16:47.554Z,48.90
2023-02-06T03:19:19.576Z,48.70
2023-02-06T03:21:46.618Z,49.30
2023-02-06T03:24:15.802Z,48.90
2023-02-06T03:26:42.955Z,49.00
2023-02-06T03:29:11.539Z,49.10
2023-02-06T03:31:52.029Z,48.90
2023-02-06T03:34:26.542Z,49.40
2023-02-06T03:36:53.591Z,49.50
2023-02-06T03:39:21.078Z,49.70
2023-02-06T03:41:49.319Z,49.70
2023-02-06T03:44:19.245Z,49.90
2023-02-06T03:46:48.493Z,49.90
2023-02-06T03:49:16.350Z,49.70
2023-02-06T03:51:46.141Z,49.60
2023-02-06T03:54:14.313Z,49.60
2023-02-06T03:56:47.365Z,49.70
2023-02-06T03:59:14.777Z,49.70
2023-02-06T04:01:47.806Z,49.60
2023-02-06T04:04:16.638Z,49.50
2023-02-06T04:06:43.701Z,49.40
2023-02-06T04:09:10.796Z,49.70
2023-02-06T04:11:37.855Z,49.60
2023-02-06T04:14:04.907Z,49.70
2023-02-06T04:16:31.991Z,49.90
2023-02-06T04:18:59.028Z,50.00
2023-02-06T04:21:26.097Z,49.80
2023-02-06T04:23:53.335Z,49.60
2023-02-06T04:26:20.481Z,49.70
2023-02-06T04:28:47.487Z,49.80
2023-02-06T04:31:14.757Z,49.90
2023-02-06T04:33:42.003Z,50.30
2023-02-06T04:36:09.234Z,50.40
2023-02-06T04:38:36.379Z,50.30
2023-02-06T04:41:04.579Z,50.40
2023-02-06T04:43:32.253Z,51.00
2023-02-06T04:45:59.400Z,50.90
2023-02-06T04:48:26.731Z,50.80
2023-02-06T04:50:53.751Z,50.60
2023-02-06T04:53:20.769Z,50.40
2023-02-06T04:55:47.895Z,50.30
2023-02-06T04:58:15.028Z,50.40
2023-02-06T05:00:42.089Z,50.60
2023-02-06T05:03:09.275Z,50.40
2023-02-06T05:05:36.766Z,50.00
2023-02-06T05:08:04.010Z,49.80
2023-02-06T05:10:31.134Z,49.80
2023-02-06T05:12:58.326Z,49.40
2023-02-06T05:15:29.462Z,49.50
2023-02-06T05:17:56.589Z,49.40
2023-02-06T05:20:26.338Z,49.50
2023-02-06T05:22:53.588Z,49.30
2023-02-06T05:25:21.997Z,49.00
2023-02-06T05:27:49.136Z,49.10
2023-02-06T05:30:16.385Z,48.70
2023-02-06T05:32:45.968Z,48.40
2023-02-06T05:35:13.010Z,48.30
2023-02-06T05:37:40.317Z,48.80
2023-02-06T05:40:08.025Z,49.00
2023-02-06T05:42:36.521Z,49.30
2023-02-06T05:45:03.878Z,49.60
2023-02-06T05:47:33.441Z,49.80
2023-02-06T05:50:00.857Z,49.90
2023-02-06T05:52:28.178Z,50.10
2023-02-06T05:54:55.241Z,48.90
2023-02-06T05:57:22.492Z,48.80
2023-02-06T05:59:49.695Z,48.50
2023-02-06T06:02:17.286Z,48.50
2023-02-06T06:04:44.555Z,48.60
2023-02-06T06:10:16.922Z,48.50
2023-02-06T06:12:47.050Z,48.20
2023-02-06T06:16:00.684Z,48.40
2023-02-06T06:18:27.911Z,48.90
2023-02-06T06:20:57.439Z,49.10
2023-02-06T06:23:34.961Z,49.10
2023-02-06T06:26:02.261Z,48.90
2023-02-06T06:28:37.447Z,48.60
2023-02-06T06:31:06.970Z,48.50
2023-02-06T06:33:34.299Z,48.70
2023-02-06T06:36:05.173Z,47.80
2023-02-06T06:38:32.404Z,47.60
2023-02-06T06:41:00.849Z,47.60
2023-02-06T06:43:28.226Z,47.50
2023-02-06T06:46:00.725Z,47.40
2023-02-06T06:48:28.398Z,47.10
2023-02-06T06:50:58.598Z,47.00
2023-02-06T06:53:25.842Z,47.60
2023-02-06T06:55:52.935Z,47.90
2023-02-06T06:58:29.589Z,47.90
2023-02-06T07:00:57.089Z,47.50
2023-02-06T07:03:24.354Z,46.90
2023-02-06T07:05:54.520Z,46.50
2023-02-06T07:08:21.631Z,46.10
2023-02-06T07:11:03.739Z,45.70
2023-02-06T07:13:32.018Z,45.90
2023-02-06T07:15:59.777Z,45.80
2023-02-06T07:18:27.139Z,45.60
2023-02-06T07:21:04.020Z,45.40
2023-02-06T07:23:54.181Z,45.20
2023-02-06T07:26:22.461Z,45.10
2023-02-06T07:28:52.864Z,45.20
2023-02-06T07:31:19.895Z,45.30
2023-02-06T07:33:47.331Z,45.10
2023-02-06T07:36:15.580Z,44.70
2023-02-06T07:38:42.743Z,45.10
2023-02-06T07:41:12.589Z,45.50
2023-02-06T07:43:40.369Z,45.00
2023-02-06T07:46:07.590Z,44.40
2023-02-06T07:48:34.833Z,44.10
2023-02-06T07:51:36.465Z,43.70
2023-02-06T07:54:03.701Z,42.80
2023-02-06T07:56:45.924Z,43.40
2023-02-06T07:59:16.773Z,43.50
2023-02-06T08:01:44.128Z,42.70
2023-02-06T08:04:11.892Z,42.80
2023-02-06T08:06:50.204Z,42.70
2023-02-06T08:09:41.281Z,43.30
2023-02-06T08:12:56.611Z,44.10
2023-02-06T08:15:23.705Z,44.20
2023-02-06T08:17:50.987Z,44.60
2023-02-06T08:20:18.567Z,44.90
2023-02-06T08:22:46.857Z,45.20
2023-02-06T08:25:17.825Z,45.30
2023-02-06T08:28:07.024Z,45.00
2023-02-06T08:30:44.214Z,45.40
2023-02-06T08:33:11.878Z,45.50
2023-02-06T08:35:39.388Z,45.60
2023-02-06T08:38:07.874Z,45.80
2023-02-06T08:40:35.009Z,45.70
2023-02-06T08:43:02.386Z,45.60
2023-02-06T08:45:30.499Z,45.50
2023-02-06T08:48:00.585Z,45.30
2023-02-06T08:50:36.323Z,45.70
2023-02-06T08:53:14.864Z,46.20
2023-02-06T08:58:33.440Z,45.30
2023-02-06T09:03:36.486Z,43.30
2023-02-06T09:06:14.875Z,42.30
2023-02-06T09:08:51.822Z,41.90
2023-02-06T09:11:21.001Z,42.00
2023-02-06T09:22:59.226Z,40.30
2023-02-06T09:36:52.267Z,38.70
2023-02-06T09:39:21.803Z,37.70
2023-02-06T09:47:41.033Z,34.30
2023-02-06T09:50:21.953Z,33.00
2023-02-06T09:53:10.147Z,31.20
2023-02-06T09:55:41.530Z,31.60
2023-02-06T09:58:49.059Z,32.50
2023-02-06T10:01:30.275Z,33.20
2023-02-06T10:04:16.445Z,34.80
2023-02-06T10:07:09.739Z,35.80
2023-02-06T10:09:53.380Z,36.50
2023-02-06T10:12:59.377Z,37.50
2023-02-06T10:16:24.020Z,38.10
2023-02-06T10:19:05.368Z,38.20
2023-02-06T10:21:47.824Z,37.70
2023-02-06T10:24:34.568Z,37.30
2023-02-06T10:27:04.256Z,37.30
2023-02-06T10:29:42.443Z,36.60
2023-02-06T10:32:34.533Z,36.50
2023-02-06T10:35:37.024Z,35.70
2023-02-06T10:38:12.310Z,32.90
2023-02-06T10:41:09.540Z,30.80
2023-02-06T10:44:08.985Z,29.90
2023-02-06T10:46:49.509Z,29.30
2023-02-06T10:50:38.669Z,29.00
2023-02-06T10:54:11.058Z,27.40
2023-02-06T10:57:06.206Z,26.60
2023-02-06T11:00:26.905Z,26.50
2023-02-06T11:03:51.886Z,24.70
2023-02-06T11:06:30.859Z,25.20
2023-02-06T11:09:00.025Z,26.10
2023-02-06T11:11:31.182Z,26.70
2023-02-06T11:14:18.216Z,28.00
2023-02-06T11:16:46.024Z,28.10
2023-02-06T11:19:30.588Z,27.50
2023-02-06T11:22:26.619Z,27.40
2023-02-06T11:27:56.042Z,28.10
2023-02-06T12:21:33.090Z,22.10
2023-02-06T12:24:06.755Z,22.90
2023-02-06T12:26:35.398Z,24.60
2023-02-06T12:29:10.156Z,24.50
2023-02-06T12:32:17.468Z,24.40
2023-02-06T12:34:58.516Z,24.00
2023-02-06T12:37:48.683Z,22.60
2023-02-06T12:40:46.447Z,22.50
2023-02-06T12:43:18.722Z,23.00
2023-02-06T12:45:49.873Z,24.30
2023-02-06T12:48:29.992Z,24.60
2023-02-06T12:51:49.536Z,25.00
2023-02-06T12:54:22.992Z,25.40
2023-02-06T12:57:02.136Z,25.00
2023-02-06T12:59:58.266Z,24.70
2023-02-06T13:02:44.335Z,24.40
2023-02-06T13:05:39.821Z,24.20
2023-02-06T13:08:17.643Z,24.60
2023-02-06T13:11:03.016Z,25.10
2023-02-06T13:14:09.044Z,26.30
2023-02-06T13:16:41.845Z,26.90
2023-02-06T13:19:32.137Z,27.50
2023-02-06T13:22:44.768Z,27.70
2023-02-06T13:25:39.142Z,28.20
2023-02-06T13:31:07.448Z,29.60
2023-02-06T13:33:48.899Z,28.70
2023-02-06T13:36:28.740Z,28.00
2023-02-06T13:39:00.749Z,27.70
2023-02-06T13:41:29.391Z,27.50
2023-02-06T13:44:17.917Z,27.10
2023-02-06T13:47:23.112Z,26.90
2023-02-06T13:50:48.849Z,27.50
2023-02-06T13:53:29.614Z,28.10
2023-02-06T13:56:10.598Z,28.90
2023-02-06T13:58:44.626Z,29.80
2023-02-06T14:01:41.294Z,29.80
2023-02-06T14:04:10.375Z,30.00
2023-02-06T14:06:49.315Z,30.00
2023-02-06T14:16:23.316Z,31.80
2023-02-06T14:19:09.148Z,32.40
2023-02-06T14:30:21.759Z,32.60
2023-02-06T14:32:53.014Z,32.80
2023-02-06T14:35:32.063Z,32.60
2023-02-06T14:38:27.807Z,32.50
2023-02-06T14:40:56.953Z,32.70
2023-02-06T14:43:28.776Z,32.70
2023-02-06T14:46:07.033Z,33.20
2023-02-06T14:48:57.754Z,33.60
2023-02-06T14:51:30.506Z,34.00
2023-02-06T14:54:00.615Z,33.80
2023-02-06T14:56:30.342Z,34.30
2023-02-06T14:59:08.226Z,34.60
2023-02-06T15:01:36.303Z,34.90
2023-02-06T15:04:23.059Z,35.00
2023-02-06T15:06:58.399Z,35.40
2023-02-06T15:09:28.519Z,35.90
2023-02-06T15:11:57.968Z,35.40
2023-02-06T15:14:29.993Z,34.70
2023-02-06T15:17:03.747Z,35.30
2023-02-06T15:19:32.837Z,35.40
2023-02-06T15:22:07.942Z,35.50
2023-02-06T15:24:59.452Z,35.70
2023-02-06T15:27:35.315Z,35.80
2023-02-06T15:30:09.247Z,36.10
2023-02-06T15:32:39.662Z,35.80
2023-02-06T15:35:37.445Z,35.60
2023-02-06T15:38:08.701Z,35.60
2023-02-06T15:40:42.484Z,35.40
2023-02-06T15:43:22.664Z,35.50
2023-02-06T15:45:52.000Z,35.70
2023-02-06T15:48:20.323Z,35.70
2023-02-06T15:51:03.509Z,35.90
2023-02-06T15:53:39.461Z,35.90
2023-02-06T15:56:20.796Z,35.90
2023-02-06T15:58:49.874Z,36.00
2023-02-06T16:01:18.955Z,36.10
2023-02-06T16:03:55.365Z,36.40
2023-02-06T16:06:46.376Z,36.70
2023-02-06T16:09:21.870Z,37.10
2023-02-06T16:11:57.055Z,37.60
2023-02-06T16:14:38.497Z,37.30
2023-02-06T16:17:37.364Z,37.50
2023-02-06T16:20:41.787Z,37.80
2023-02-06T16:23:29.212Z,37.70
2023-02-06T16:26:02.514Z,37.70
2023-02-06T16:28:31.400Z,37.70
2023-02-06T16:31:04.812Z,37.90
2023-02-06T16:33:42.889Z,37.40
2023-02-06T16:36:14.386Z,37.60
2023-02-06T16:38:46.333Z,37.80
2023-02-06T16:41:37.378Z,37.80
2023-02-06T16:44:07.991Z,37.70
2023-02-06T16:46:35.086Z,37.60
2023-02-06T16:49:02.484Z,37.50
2023-02-06T16:51:30.482Z,37.70
2023-02-06T16:53:58.503Z,37.70
2023-02-06T16:56:37.998Z,37.90
2023-02-06T16:59:05.302Z,38.10
2023-02-06T17:01:35.733Z,38.70
2023-02-06T17:04:03.175Z,39.20
2023-02-06T17:06:30.760Z,38.80
2023-02-06T17:09:02.233Z,38.90
2023-02-06T17:11:31.020Z,38.50
2023-02-06T17:14:00.787Z,38.20
2023-02-06T17:16:29.769Z,38.10
2023-02-06T17:18:57.146Z,38.00
2023-02-06T17:21:25.223Z,38.00
2023-02-06T17:23:52.770Z,38.50
2023-02-06T17:26:22.063Z,39.00
2023-02-06T17:28:50.558Z,39.60
2023-02-06T17:31:22.166Z,39.70
2023-02-06T17:34:00.735Z,39.60
2023-02-06T17:36:33.616Z,39.70
2023-02-06T17:39:00.883Z,39.70
2023-02-06T17:41:28.650Z,39.60
2023-02-06T17:43:55.885Z,39.60
2023-02-06T17:46:23.516Z,39.40
2023-02-06T17:48:50.889Z,39.70
2023-02-06T17:51:18.123Z,39.80
2023-02-06T17:53:48.481Z,40.10
2023-02-06T17:56:15.965Z,40.20
2023-02-06T17:58:43.627Z,39.90
2023-02-06T18:01:12.525Z,40.10
2023-02-06T18:03:41.349Z,40.30
2023-02-06T18:06:08.913Z,40.20
2023-02-06T18:08:36.258Z,40.10
2023-02-06T18:11:18.324Z,39.80
2023-02-06T18:13:46.635Z,40.10
2023-02-06T18:16:17.715Z,40.00
2023-02-06T18:18:45.099Z,39.70
2023-02-06T18:21:12.400Z,39.70
2023-02-06T18:23:39.709Z,40.20
2023-02-06T18:26:08.900Z,39.90
2023-02-06T18:28:37.055Z,39.80
2023-02-06T18:31:04.951Z,39.90
2023-02-06T18:33:34.153Z,40.10
2023-02-06T18:36:05.538Z,40.00
2023-02-06T18:38:33.723Z,39.90
2023-02-06T18:41:06.248Z,39.60
2023-02-06T18:43:33.865Z,39.80
2023-02-06T18:46:11.354Z,39.60
2023-02-06T18:48:38.481Z,40.10
2023-02-06T18:51:07.823Z,40.10
2023-02-06T18:53:34.906Z,40.60
2023-02-06T18:56:03.364Z,40.80
2023-02-06T18:58:30.739Z,41.20
2023-02-06T19:00:58.050Z,40.90
2023-02-06T19:03:25.418Z,40.60
2023-02-06T19:05:52.577Z,40.70
2023-02-06T19:08:23.561Z,40.70
2023-02-06T19:10:51.924Z,40.80
2023-02-06T19:13:19.401Z,41.00
2023-02-06T19:15:47.927Z,41.30
2023-02-06T19:18:19.762Z,41.40
2023-02-06T19:20:52.235Z,41.50
2023-02-06T19:23:19.485Z,41.70
2023-02-06T19:25:47.080Z,41.80
2023-02-06T19:28:14.427Z,42.20
2023-02-06T19:30:41.957Z,42.00
2023-02-06T19:33:09.420Z,41.80
2023-02-06T19:35:40.596Z,42.00
2023-02-06T19:38:07.741Z,42.20
2023-02-06T19:40:36.937Z,42.20
2023-02-06T19:43:04.461Z,42.30
2023-02-06T19:45:31.725Z,42.20
2023-02-06T19:47:58.969Z,42.30
2023-02-06T19:50:26.224Z,42.20
2023-02-06T19:52:53.390Z,41.90
2023-02-06T19:55:20.720Z,42.00
2023-02-06T19:57:48.823Z,42.00
2023-02-06T20:00:16.443Z,41.70
2023-02-06T20:02:43.895Z,41.90
2023-02-06T20:05:14.261Z,41.80
2023-02-06T20:07:41.680Z,42.10
2023-02-06T20:10:09.425Z,42.10
2023-02-06T20:12:38.162Z,41.90
2023-02-06T20:15:09.905Z,41.70
2023-02-06T20:17:38.134Z,41.80
2023-02-06T20:20:06.789Z,41.90
2023-02-06T20:22:34.357Z,42.00
2023-02-06T20:25:02.837Z,42.50
2023-02-06T20:27:33.741Z,41.80
2023-02-06T20:30:03.610Z,41.40
2023-02-06T20:32:33.367Z,41.60
2023-02-06T20:35:02.152Z,41.40
2023-02-06T20:37:29.836Z,41.60
2023-02-06T20:40:07.264Z,41.50
2023-02-06T20:42:37.276Z,41.50
2023-02-06T20:45:05.091Z,41.60
2023-02-06T20:47:32.665Z,41.70
2023-02-06T20:50:02.090Z,41.80
2023-02-06T20:52:30.577Z,41.50
2023-02-06T20:54:58.295Z,41.50
2023-02-06T20:57:25.930Z,41.70
2023-02-06T20:59:53.947Z,41.50
2023-02-06T21:02:21.563Z,41.50
2023-02-06T21:04:52.641Z,42.20
2023-02-06T21:07:21.150Z,41.80
2023-02-06T21:09:52.748Z,41.80
2023-02-06T21:12:21.613Z,42.00
2023-02-06T21:14:48.784Z,41.80
2023-02-06T21:17:16.024Z,41.80
2023-02-06T21:19:46.939Z,41.50
2023-02-06T21:22:14.371Z,41.50
2023-02-06T21:24:41.591Z,41.30
2023-02-06T21:27:10.423Z,41.20
2023-02-06T21:29:38.311Z,40.90
2023-02-06T21:32:13.592Z,40.80
2023-02-06T21:34:45.116Z,40.50
2023-02-06T21:37:14.655Z,40.80
2023-02-06T21:39:42.030Z,41.00
2023-02-06T21:42:10.561Z,41.10
2023-02-06T21:44:41.200Z,41.00
2023-02-06T21:47:10.273Z,41.20
2023-02-06T21:49:38.019Z,41.60
2023-02-06T21:52:07.619Z,41.70
2023-02-06T21:54:34.919Z,41.40
2023-02-06T21:57:02.231Z,41.30
2023-02-06T21:59:31.092Z,41.40
2023-02-06T22:01:58.426Z,41.10
2023-02-06T22:04:25.854Z,41.10
2023-02-06T22:06:55.872Z,41.10
2023-02-06T22:09:23.609Z,41.10
2023-02-06T22:11:50.958Z,41.20
2023-02-06T22:14:18.725Z,41.10
2023-02-06T22:16:48.888Z,41.40
2023-02-06T22:19:16.529Z,41.50
2023-02-06T22:21:46.695Z,41.50
2023-02-06T22:24:14.117Z,41.80
2023-02-06T22:26:41.839Z,41.80
2023-02-06T22:29:11.773Z,41.60
2023-02-06T22:31:39.102Z,41.90
2023-02-06T22:34:06.427Z,42.10
2023-02-06T22:36:34.220Z,42.20
2023-02-06T22:39:03.591Z,42.30
2023-02-06T22:41:32.151Z,42.30
2023-02-06T22:43:59.595Z,42.30
2023-02-06T22:46:27.679Z,42.70
2023-02-06T22:48:54.997Z,43.10
2023-02-06T22:51:23.830Z,43.30
2023-02-06T22:53:51.377Z,43.30
2023-02-06T22:56:27.180Z,43.00
2023-02-06T22:58:55.529Z,43.10
2023-02-06T23:01:23.992Z,42.80
2023-02-06T23:03:54.787Z,42.50
2023-02-06T23:06:22.150Z,42.50
2023-02-06T23:08:49.501Z,42.50
2023-02-06T23:11:16.961Z,42.70
2023-02-06T23:14:07.240Z,42.70
2023-02-06T23:16:35.207Z,42.80
2023-02-06T23:19:04.768Z,43.10
2023-02-06T23:21:34.202Z,43.10
2023-02-06T23:24:01.372Z,43.30
2023-02-06T23:26:29.134Z,43.20
2023-02-06T23:28:59.764Z,43.20
2023-02-06T23:31:27.486Z,43.20
2023-02-06T23:33:55.832Z,43.20
2023-02-06T23:36:28.503Z,43.20
2023-02-06T23:38:55.895Z,43.60
2023-02-06T23:41:27.349Z,43.60
2023-02-06T23:43:58.322Z,43.60
2023-02-06T23:46:25.649Z,43.90
2023-02-06T23:48:53.324Z,44.00
2023-02-06T23:51:20.898Z,43.80
2023-02-06T23:53:48.903Z,43.60
2023-02-06T23:56:21.479Z,43.60
2023-02-06T23:58:48.768Z,43.60
